sensor_id;sensor_type;location;lat;lon;timestamp;temperature;humidity
44573;DHT22;31762;45.420;10.072;2022-10-30T00:02:55;15.40;99.90
44573;DHT22;31762;45.420;10.072;2022-10-30T00:07:58;15.80;99.90
44573;DHT22;31762;45.420;10.072;2022-10-30T00:13:00;15.40;99.90
44573;DHT22;31762;45.420;10.072;2022-10-30T00:18:02;15.30;99.90
44573;DHT22;31762;45.420;10.072;2022-10-30T00:23:04;15.40;99.90
44573;DHT22;31762;45.420;10.072;2022-10-30T00:28:06;15.30;99.90
44573;DHT22;31762;45.420;10.072;2022-10-30T00:33:08;15.40;99.90
44573;DHT22;31762;45.420;10.072;2022-10-30T00:38:09;15.40;99.90
44573;DHT22;31762;45.420;10.072;2022-10-30T00:48:32;15.30;99.90
44573;DHT22;31762;45.420;10.072;2022-10-30T00:53:34;15.20;99.90
44573;DHT22;31762;45.420;10.072;2022-10-30T00:58:40;15.10;99.90
44573;DHT22;31762;45.420;10.072;2022-10-30T01:03:44;15.40;99.90
44573;DHT22;31762;45.420;10.072;2022-10-30T01:08:47;15.00;99.90
44573;DHT22;31762;45.420;10.072;2022-10-30T01:13:51;15.10;99.90
44573;DHT22;31762;45.420;10.072;2022-10-30T01:19:06;14.90;99.90
44573;DHT22;31762;45.420;10.072;2022-10-30T01:29:54;15.10;99.90
44573;DHT22;31762;45.420;10.072;2022-10-30T01:40:43;14.70;99.90
44573;DHT22;31762;45.420;10.072;2022-10-30T01:46:28;15.00;99.90
44573;DHT22;31762;45.420;10.072;2022-10-30T01:51:53;14.70;99.90
44573;DHT22;31762;45.420;10.072;2022-10-30T01:57:15;14.40;99.90
44573;DHT22;31762;45.420;10.072;2022-10-30T02:02:18;14.60;99.90
44573;DHT22;31762;45.420;10.072;2022-10-30T02:07:21;14.60;99.90
44573;DHT22;31762;45.420;10.072;2022-10-30T02:12:23;14.70;99.90
44573;DHT22;31762;45.420;10.072;2022-10-30T02:17:26;14.60;99.90
44573;DHT22;31762;45.420;10.072;2022-10-30T02:22:28;14.60;99.90
44573;DHT22;31762;45.420;10.072;2022-10-30T02:27:30;14.70;99.90
44573;DHT22;31762;45.420;10.072;2022-10-30T02:32:31;14.60;99.90
44573;DHT22;31762;45.420;10.072;2022-10-30T02:37:33;14.50;99.90
44573;DHT22;31762;45.420;10.072;2022-10-30T02:42:35;14.60;99.90
44573;DHT22;31762;45.420;10.072;2022-10-30T02:47:37;14.40;99.90
44573;DHT22;31762;45.420;10.072;2022-10-30T02:52:38;14.60;99.90
44573;DHT22;31762;45.420;10.072;2022-10-30T02:57:40;14.60;99.90
44573;DHT22;31762;45.420;10.072;2022-10-30T03:02:42;14.40;99.90
44573;DHT22;31762;45.420;10.072;2022-10-30T03:07:44;14.20;99.90
44573;DHT22;31762;45.420;10.072;2022-10-30T03:12:45;14.10;99.90
44573;DHT22;31762;45.420;10.072;2022-10-30T03:17:47;14.50;99.90
44573;DHT22;31762;45.420;10.072;2022-10-30T03:22:49;14.50;99.90
44573;DHT22;31762;45.420;10.072;2022-10-30T03:27:51;14.60;99.90
44573;DHT22;31762;45.420;10.072;2022-10-30T03:32:53;14.40;99.90
44573;DHT22;31762;45.420;10.072;2022-10-30T03:37:54;14.40;99.90
44573;DHT22;31762;45.420;10.072;2022-10-30T03:42:56;14.30;99.90
44573;DHT22;31762;45.420;10.072;2022-10-30T03:48:01;14.40;99.90
44573;DHT22;31762;45.420;10.072;2022-10-30T03:53:03;14.60;99.90
44573;DHT22;31762;45.420;10.072;2022-10-30T03:58:06;13.80;99.90
44573;DHT22;31762;45.420;10.072;2022-10-30T04:03:08;14.20;99.90
44573;DHT22;31762;45.420;10.072;2022-10-30T04:08:12;14.40;99.90
44573;DHT22;31762;45.420;10.072;2022-10-30T04:13:16;15.00;99.90
44573;DHT22;31762;45.420;10.072;2022-10-30T04:18:18;14.30;99.90
44573;DHT22;31762;45.420;10.072;2022-10-30T04:23:20;14.10;99.90
44573;DHT22;31762;45.420;10.072;2022-10-30T04:28:22;14.00;99.90
44573;DHT22;31762;45.420;10.072;2022-10-30T04:33:24;14.20;99.90
44573;DHT22;31762;45.420;10.072;2022-10-30T04:38:26;14.10;99.90
44573;DHT22;31762;45.420;10.072;2022-10-30T04:43:28;14.20;99.90
44573;DHT22;31762;45.420;10.072;2022-10-30T04:48:29;13.80;99.90
44573;DHT22;31762;45.420;10.072;2022-10-30T04:53:31;14.20;99.90
44573;DHT22;31762;45.420;10.072;2022-10-30T04:58:33;14.00;99.90
44573;DHT22;31762;45.420;10.072;2022-10-30T05:03:34;14.00;99.90
44573;DHT22;31762;45.420;10.072;2022-10-30T05:08:36;13.70;99.90
44573;DHT22;31762;45.420;10.072;2022-10-30T05:13:38;13.50;99.90
44573;DHT22;31762;45.420;10.072;2022-10-30T05:18:39;13.50;99.90
44573;DHT22;31762;45.420;10.072;2022-10-30T05:23:41;13.20;99.90
44573;DHT22;31762;45.420;10.072;2022-10-30T05:28:43;13.00;99.90
44573;DHT22;31762;45.420;10.072;2022-10-30T05:33:44;13.00;99.90
44573;DHT22;31762;45.420;10.072;2022-10-30T05:38:46;13.20;99.90
44573;DHT22;31762;45.420;10.072;2022-10-30T05:43:48;13.50;99.90
44573;DHT22;31762;45.420;10.072;2022-10-30T05:48:50;13.70;99.90
44573;DHT22;31762;45.420;10.072;2022-10-30T05:53:51;14.10;99.90
44573;DHT22;31762;45.420;10.072;2022-10-30T05:58:53;13.60;99.90
44573;DHT22;31762;45.420;10.072;2022-10-30T06:03:56;13.50;99.90
44573;DHT22;31762;45.420;10.072;2022-10-30T06:08:58;13.30;99.90
44573;DHT22;31762;45.420;10.072;2022-10-30T06:13:59;13.40;99.90
44573;DHT22;31762;45.420;10.072;2022-10-30T06:19:01;13.50;99.90
44573;DHT22;31762;45.420;10.072;2022-10-30T06:24:03;13.40;99.90
44573;DHT22;31762;45.420;10.072;2022-10-30T06:29:05;13.40;99.90
44573;DHT22;31762;45.420;10.072;2022-10-30T06:34:07;13.50;99.90
44573;DHT22;31762;45.420;10.072;2022-10-30T06:39:08;13.30;99.90
44573;DHT22;31762;45.420;10.072;2022-10-30T06:44:10;13.80;99.90
44573;DHT22;31762;45.420;10.072;2022-10-30T06:49:12;13.70;99.90
44573;DHT22;31762;45.420;10.072;2022-10-30T06:54:13;13.60;99.90
44573;DHT22;31762;45.420;10.072;2022-10-30T06:59:15;13.50;99.90
44573;DHT22;31762;45.420;10.072;2022-10-30T07:04:17;13.50;99.90
44573;DHT22;31762;45.420;10.072;2022-10-30T07:09:19;13.70;99.90
44573;DHT22;31762;45.420;10.072;2022-10-30T07:14:20;14.10;99.90
44573;DHT22;31762;45.420;10.072;2022-10-30T07:19:22;14.50;99.90
44573;DHT22;31762;45.420;10.072;2022-10-30T07:24:24;14.40;99.90
44573;DHT22;31762;45.420;10.072;2022-10-30T07:29:26;14.50;99.90
44573;DHT22;31762;45.420;10.072;2022-10-30T07:34:27;14.50;99.90
44573;DHT22;31762;45.420;10.072;2022-10-30T07:39:29;14.90;99.90
44573;DHT22;31762;45.420;10.072;2022-10-30T07:44:31;14.90;99.90
44573;DHT22;31762;45.420;10.072;2022-10-30T07:49:33;15.10;99.90
44573;DHT22;31762;45.420;10.072;2022-10-30T07:54:34;15.20;99.90
44573;DHT22;31762;45.420;10.072;2022-10-30T07:59:36;15.80;99.90
44573;DHT22;31762;45.420;10.072;2022-10-30T08:04:38;16.00;99.90
44573;DHT22;31762;45.420;10.072;2022-10-30T08:09:39;16.00;99.90
44573;DHT22;31762;45.420;10.072;2022-10-30T08:14:41;16.10;99.90
44573;DHT22;31762;45.420;10.072;2022-10-30T08:19:43;16.20;99.90
44573;DHT22;31762;45.420;10.072;2022-10-30T08:24:45;16.40;99.90
44573;DHT22;31762;45.420;10.072;2022-10-30T08:29:46;16.60;99.90
44573;DHT22;31762;45.420;10.072;2022-10-30T08:34:48;16.90;99.90
44573;DHT22;31762;45.420;10.072;2022-10-30T08:39:50;17.00;99.90
44573;DHT22;31762;45.420;10.072;2022-10-30T08:44:51;17.10;99.90
44573;DHT22;31762;45.420;10.072;2022-10-30T08:49:53;17.20;99.90
44573;DHT22;31762;45.420;10.072;2022-10-30T08:54:55;17.50;99.90
44573;DHT22;31762;45.420;10.072;2022-10-30T08:59:56;17.60;99.90
44573;DHT22;31762;45.420;10.072;2022-10-30T09:04:59;17.60;99.90
44573;DHT22;31762;45.420;10.072;2022-10-30T09:10:01;17.70;99.90
44573;DHT22;31762;45.420;10.072;2022-10-30T09:15:03;17.90;99.90
44573;DHT22;31762;45.420;10.072;2022-10-30T09:20:05;18.00;99.90
44573;DHT22;31762;45.420;10.072;2022-10-30T09:25:07;18.20;99.90
44573;DHT22;31762;45.420;10.072;2022-10-30T09:30:10;18.70;99.90
44573;DHT22;31762;45.420;10.072;2022-10-30T09:35:12;19.10;99.90
44573;DHT22;31762;45.420;10.072;2022-10-30T09:50:44;19.60;99.90
44573;DHT22;31762;45.420;10.072;2022-10-30T09:56:17;19.80;99.90
44573;DHT22;31762;45.420;10.072;2022-10-30T10:01:50;20.10;99.90
44573;DHT22;31762;45.420;10.072;2022-10-30T10:07:01;20.50;99.90
44573;DHT22;31762;45.420;10.072;2022-10-30T10:12:53;20.60;99.90
44573;DHT22;31762;45.420;10.072;2022-10-30T10:17:35;20.70;99.90
44573;DHT22;31762;45.420;10.072;2022-10-30T10:54:26;22.70;99.90
44573;DHT22;31762;45.420;10.072;2022-10-30T10:59:33;22.80;99.90
44573;DHT22;31762;45.420;10.072;2022-10-30T11:04:42;23.00;99.90
44573;DHT22;31762;45.420;10.072;2022-10-30T11:09:50;23.30;99.90
44573;DHT22;31762;45.420;10.072;2022-10-30T11:14:53;23.20;99.90
44573;DHT22;31762;45.420;10.072;2022-10-30T11:20:00;22.90;99.90
44573;DHT22;31762;45.420;10.072;2022-10-30T11:30:29;23.60;99.90
44573;DHT22;31762;45.420;10.072;2022-10-30T11:35:40;23.80;99.90
44573;DHT22;31762;45.420;10.072;2022-10-30T11:40:47;24.00;99.90
44573;DHT22;31762;45.420;10.072;2022-10-30T11:45:52;24.70;99.90
44573;DHT22;31762;45.420;10.072;2022-10-30T11:51:03;24.20;99.90
44573;DHT22;31762;45.420;10.072;2022-10-30T11:56:21;24.20;99.90
44573;DHT22;31762;45.420;10.072;2022-10-30T12:07:07;24.40;99.90
44573;DHT22;31762;45.420;10.072;2022-10-30T12:12:32;24.60;99.90
44573;DHT22;31762;45.420;10.072;2022-10-30T12:17:32;24.40;99.90
44573;DHT22;31762;45.420;10.072;2022-10-30T12:22:34;24.60;99.90
44573;DHT22;31762;45.420;10.072;2022-10-30T12:27:36;24.50;99.90
44573;DHT22;31762;45.420;10.072;2022-10-30T12:33:06;24.50;99.90
44573;DHT22;31762;45.420;10.072;2022-10-30T12:38:34;24.20;99.90
44573;DHT22;31762;45.420;10.072;2022-10-30T12:43:38;24.60;99.90
44573;DHT22;31762;45.420;10.072;2022-10-30T12:54:23;24.50;99.90
44573;DHT22;31762;45.420;10.072;2022-10-30T13:00:00;24.40;99.90
44573;DHT22;31762;45.420;10.072;2022-10-30T13:10:40;24.20;99.90
44573;DHT22;31762;45.420;10.072;2022-10-30T13:15:49;24.00;99.90
44573;DHT22;31762;45.420;10.072;2022-10-30T13:20:57;24.20;99.90
44573;DHT22;31762;45.420;10.072;2022-10-30T13:26:16;24.20;99.90
44573;DHT22;31762;45.420;10.072;2022-10-30T13:36:39;24.20;99.90
44573;DHT22;31762;45.420;10.072;2022-10-30T13:42:13;23.80;99.90
44573;DHT22;31762;45.420;10.072;2022-10-30T13:47:23;23.50;99.90
44573;DHT22;31762;45.420;10.072;2022-10-30T13:52:31;23.40;99.90
44573;DHT22;31762;45.420;10.072;2022-10-30T13:57:42;23.30;99.90
44573;DHT22;31762;45.420;10.072;2022-10-30T14:18:58;23.00;99.90
44573;DHT22;31762;45.420;10.072;2022-10-30T14:24:47;23.10;99.90
44573;DHT22;31762;45.420;10.072;2022-10-30T14:39:52;22.80;99.90
44573;DHT22;31762;45.420;10.072;2022-10-30T14:45:12;22.80;99.90
44573;DHT22;31762;45.420;10.072;2022-10-30T14:50:37;22.70;99.90
44573;DHT22;31762;45.420;10.072;2022-10-30T14:56:05;22.60;99.90
44573;DHT22;31762;45.420;10.072;2022-10-30T15:06:33;22.30;99.90
44573;DHT22;31762;45.420;10.072;2022-10-30T15:11:58;22.10;99.90
44573;DHT22;31762;45.420;10.072;2022-10-30T15:17:02;22.10;99.90
44573;DHT22;31762;45.420;10.072;2022-10-30T15:22:04;22.10;99.90
44573;DHT22;31762;45.420;10.072;2022-10-30T15:27:10;22.00;99.90
44573;DHT22;31762;45.420;10.072;2022-10-30T15:32:16;21.80;99.90
44573;DHT22;31762;45.420;10.072;2022-10-30T15:37:18;21.70;99.90
44573;DHT22;31762;45.420;10.072;2022-10-30T15:42:20;21.40;99.90
44573;DHT22;31762;45.420;10.072;2022-10-30T15:47:22;21.30;99.90
44573;DHT22;31762;45.420;10.072;2022-10-30T15:52:28;21.20;99.90
44573;DHT22;31762;45.420;10.072;2022-10-30T15:57:34;20.90;99.90
44573;DHT22;31762;45.420;10.072;2022-10-30T16:03:03;20.70;99.90
44573;DHT22;31762;45.420;10.072;2022-10-30T16:08:13;20.60;99.90
44573;DHT22;31762;45.420;10.072;2022-10-30T16:13:17;20.40;99.90
44573;DHT22;31762;45.420;10.072;2022-10-30T16:18:25;20.20;99.90
44573;DHT22;31762;45.420;10.072;2022-10-30T16:23:29;20.10;99.90
44573;DHT22;31762;45.420;10.072;2022-10-30T16:28:33;20.10;99.90
44573;DHT22;31762;45.420;10.072;2022-10-30T16:33:35;19.80;99.90
44573;DHT22;31762;45.420;10.072;2022-10-30T16:38:38;19.60;99.90
44573;DHT22;31762;45.420;10.072;2022-10-30T16:43:41;19.50;99.90
44573;DHT22;31762;45.420;10.072;2022-10-30T16:48:58;19.30;99.90
44573;DHT22;31762;45.420;10.072;2022-10-30T16:54:01;19.20;99.90
44573;DHT22;31762;45.420;10.072;2022-10-30T16:59:12;19.10;99.90
44573;DHT22;31762;45.420;10.072;2022-10-30T17:04:15;19.20;99.90
44573;DHT22;31762;45.420;10.072;2022-10-30T17:09:22;19.00;99.90
44573;DHT22;31762;45.420;10.072;2022-10-30T17:14:24;19.00;99.90
44573;DHT22;31762;45.420;10.072;2022-10-30T17:24:35;18.70;99.90
44573;DHT22;31762;45.420;10.072;2022-10-30T17:34:39;18.60;99.90
44573;DHT22;31762;45.420;10.072;2022-10-30T17:39:40;18.40;99.90
44573;DHT22;31762;45.420;10.072;2022-10-30T17:44:42;18.30;99.90
44573;DHT22;31762;45.420;10.072;2022-10-30T17:49:44;18.40;99.90
44573;DHT22;31762;45.420;10.072;2022-10-30T17:54:46;18.70;99.90
44573;DHT22;31762;45.420;10.072;2022-10-30T17:59:47;18.30;99.90
44573;DHT22;31762;45.420;10.072;2022-10-30T18:04:49;18.10;99.90
44573;DHT22;31762;45.420;10.072;2022-10-30T18:09:51;17.90;99.90
44573;DHT22;31762;45.420;10.072;2022-10-30T18:14:53;17.80;99.90
44573;DHT22;31762;45.420;10.072;2022-10-30T18:19:54;17.70;99.90
44573;DHT22;31762;45.420;10.072;2022-10-30T18:24:58;17.80;99.90
44573;DHT22;31762;45.420;10.072;2022-10-30T18:30:00;17.80;99.90
44573;DHT22;31762;45.420;10.072;2022-10-30T18:35:18;17.60;99.90
44573;DHT22;31762;45.420;10.072;2022-10-30T18:40:20;17.60;99.90
44573;DHT22;31762;45.420;10.072;2022-10-30T18:45:26;17.50;99.90
44573;DHT22;31762;45.420;10.072;2022-10-30T18:50:29;17.40;99.90
44573;DHT22;31762;45.420;10.072;2022-10-30T18:55:33;17.20;99.90
44573;DHT22;31762;45.420;10.072;2022-10-30T19:00:37;17.20;99.90
44573;DHT22;31762;45.420;10.072;2022-10-30T19:06:00;17.10;99.90
44573;DHT22;31762;45.420;10.072;2022-10-30T19:11:01;17.30;99.90
44573;DHT22;31762;45.420;10.072;2022-10-30T19:16:12;17.20;99.90
44573;DHT22;31762;45.420;10.072;2022-10-30T19:21:17;17.10;99.90
44573;DHT22;31762;45.420;10.072;2022-10-30T19:26:19;17.00;99.90
44573;DHT22;31762;45.420;10.072;2022-10-30T19:31:21;16.90;99.90
44573;DHT22;31762;45.420;10.072;2022-10-30T19:36:27;16.90;99.90
44573;DHT22;31762;45.420;10.072;2022-10-30T19:41:29;16.90;99.90
44573;DHT22;31762;45.420;10.072;2022-10-30T19:46:36;17.00;99.90
44573;DHT22;31762;45.420;10.072;2022-10-30T19:51:38;16.90;99.90
44573;DHT22;31762;45.420;10.072;2022-10-30T19:56:40;16.90;99.90
44573;DHT22;31762;45.420;10.072;2022-10-30T20:01:42;16.80;99.90
44573;DHT22;31762;45.420;10.072;2022-10-30T20:06:44;16.60;99.90
44573;DHT22;31762;45.420;10.072;2022-10-30T20:11:45;16.80;99.90
44573;DHT22;31762;45.420;10.072;2022-10-30T20:16:47;16.70;99.90
44573;DHT22;31762;45.420;10.072;2022-10-30T20:21:49;16.50;99.90
44573;DHT22;31762;45.420;10.072;2022-10-30T20:26:51;16.50;99.90
44573;DHT22;31762;45.420;10.072;2022-10-30T20:31:53;16.70;99.90
44573;DHT22;31762;45.420;10.072;2022-10-30T20:36:55;16.40;99.90
44573;DHT22;31762;45.420;10.072;2022-10-30T20:41:56;16.30;99.90
44573;DHT22;31762;45.420;10.072;2022-10-30T20:46:58;16.10;99.90
44573;DHT22;31762;45.420;10.072;2022-10-30T20:52:00;16.10;99.90
44573;DHT22;31762;45.420;10.072;2022-10-30T20:57:02;15.80;99.90
44573;DHT22;31762;45.420;10.072;2022-10-30T21:02:03;15.90;99.90
44573;DHT22;31762;45.420;10.072;2022-10-30T21:07:06;16.00;99.90
44573;DHT22;31762;45.420;10.072;2022-10-30T21:12:07;16.00;99.90
44573;DHT22;31762;45.420;10.072;2022-10-30T21:17:09;16.00;99.90
44573;DHT22;31762;45.420;10.072;2022-10-30T21:22:11;15.90;99.90
44573;DHT22;31762;45.420;10.072;2022-10-30T21:27:12;16.00;99.90
44573;DHT22;31762;45.420;10.072;2022-10-30T21:32:14;15.80;99.90
44573;DHT22;31762;45.420;10.072;2022-10-30T21:37:16;15.80;99.90
44573;DHT22;31762;45.420;10.072;2022-10-30T21:42:18;15.40;99.90
44573;DHT22;31762;45.420;10.072;2022-10-30T21:47:19;15.40;99.90
44573;DHT22;31762;45.420;10.072;2022-10-30T21:52:21;15.60;99.90
44573;DHT22;31762;45.420;10.072;2022-10-30T21:57:23;15.60;99.90
44573;DHT22;31762;45.420;10.072;2022-10-30T22:02:25;15.60;99.90
44573;DHT22;31762;45.420;10.072;2022-10-30T22:07:26;15.70;99.90
44573;DHT22;31762;45.420;10.072;2022-10-30T22:12:28;15.80;99.90
44573;DHT22;31762;45.420;10.072;2022-10-30T22:17:30;15.70;99.90
44573;DHT22;31762;45.420;10.072;2022-10-30T22:22:35;15.90;99.90
44573;DHT22;31762;45.420;10.072;2022-10-30T22:27:37;15.80;99.90
44573;DHT22;31762;45.420;10.072;2022-10-30T22:32:39;15.70;99.90
44573;DHT22;31762;45.420;10.072;2022-10-30T22:37:41;15.60;99.90
44573;DHT22;31762;45.420;10.072;2022-10-30T22:42:42;15.50;99.90
44573;DHT22;31762;45.420;10.072;2022-10-30T22:47:44;15.40;99.90
44573;DHT22;31762;45.420;10.072;2022-10-30T22:52:46;15.40;99.90
44573;DHT22;31762;45.420;10.072;2022-10-30T22:57:52;15.80;99.90
44573;DHT22;31762;45.420;10.072;2022-10-30T23:02:53;15.70;99.90
44573;DHT22;31762;45.420;10.072;2022-10-30T23:07:55;15.80;99.90
44573;DHT22;31762;45.420;10.072;2022-10-30T23:12:57;15.40;99.90
44573;DHT22;31762;45.420;10.072;2022-10-30T23:17:59;15.30;99.90
44573;DHT22;31762;45.420;10.072;2022-10-30T23:23:03;15.30;99.90
44573;DHT22;31762;45.420;10.072;2022-10-30T23:28:09;15.30;99.90
44573;DHT22;31762;45.420;10.072;2022-10-30T23:33:11;15.20;99.90
44573;DHT22;31762;45.420;10.072;2022-10-30T23:38:13;15.30;99.90
44573;DHT22;31762;45.420;10.072;2022-10-30T23:43:15;15.30;99.90
44573;DHT22;31762;45.420;10.072;2022-10-30T23:48:17;15.30;99.90
44573;DHT22;31762;45.420;10.072;2022-10-30T23:53:19;15.20;99.90
44573;DHT22;31762;45.420;10.072;2022-10-30T23:58:20;15.00;99.90
